Time;durP1;ratioP1;P1;durP2;ratioP2;P2;SDS_P1;SDS_P2;PMS_P1;PMS_P2;Temp;Humidity;BMP_temperature;BMP_pressure;BME280_temperature;BME280_humidity;BME280_pressure;Samples;Min_cycle;Max_cycle;Signal;HPM_P1;HPM_P2
2021/12/19 00:02:00;;;;;;;28.20;16.73;;;;;;;2.85;100.00;100144.38;5094528;28;20219;-67
2021/12/19 00:04:34;;;;;;;23.03;16.77;;;;;;;2.82;100.00;100142.66;5094455;28;20196;-67
2021/12/19 00:09:46;;;;;;;25.53;16.87;;;;;;;2.78;100.00;100130.78;5089914;28;20217;-67
2021/12/19 00:12:13;;;;;;;25.83;16.90;;;;;;;2.71;100.00;100113.84;5092172;28;20213;-67
2021/12/19 00:14:40;;;;;;;26.63;16.80;;;;;;;2.72;100.00;100125.66;5092344;28;20206;-67
2021/12/19 00:17:07;;;;;;;20.70;15.93;;;;;;;2.66;100.00;100120.53;5091553;28;20195;-68
2021/12/19 00:19:35;;;;;;;18.90;14.67;;;;;;;2.55;100.00;100097.59;5092214;28;20196;-67
2021/12/19 00:22:02;;;;;;;21.67;16.07;;;;;;;2.57;100.00;100111.13;5092118;28;20315;-67
2021/12/19 00:24:29;;;;;;;20.83;13.43;;;;;;;2.53;100.00;100113.59;5092303;28;20195;-67
2021/12/19 00:26:56;;;;;;;18.83;13.40;;;;;;;2.52;100.00;100111.91;5092970;28;20196;-67
2021/12/19 00:29:23;;;;;;;17.67;13.67;;;;;;;2.41;100.00;100098.25;5092942;28;20191;-67
2021/12/19 00:31:50;;;;;;;21.13;13.00;;;;;;;2.37;100.00;100096.50;5092098;28;20196;-67
2021/12/19 00:34:17;;;;;;;16.07;11.83;;;;;;;2.29;100.00;100093.03;5091456;28;20199;-67
2021/12/19 00:36:45;;;;;;;18.70;11.57;;;;;;;2.13;100.00;100082.69;5086955;28;20567;-67
2021/12/19 00:39:13;;;;;;;15.03;12.33;;;;;;;2.08;100.00;100079.25;5091795;28;20214;-67
2021/12/19 00:41:40;;;;;;;15.90;11.83;;;;;;;2.05;100.00;100085.94;5091706;28;20215;-67
2021/12/19 00:44:10;;;;;;;15.47;10.73;;;;;;;1.99;100.00;100089.22;5091847;28;20195;-67
2021/12/19 00:46:46;;;;;;;13.00;10.77;;;;;;;2.03;100.00;100088.44;5092682;28;20264;-67
2021/12/19 00:49:14;;;;;;;13.00;10.43;;;;;;;1.96;100.00;100084.13;5093714;28;20195;-67
2021/12/19 00:51:41;;;;;;;16.53;8.77;;;;;;;1.87;100.00;100081.47;5093572;28;20196;-67
2021/12/19 00:54:10;;;;;;;10.57;9.63;;;;;;;1.77;100.00;100077.09;5092694;28;20693;-67
2021/12/19 00:56:40;;;;;;;12.00;8.53;;;;;;;1.83;100.00;100092.34;5093207;28;20195;-67
2021/12/19 00:59:08;;;;;;;10.23;8.60;;;;;;;1.79;100.00;100085.53;5093190;28;20206;-67
2021/12/19 01:01:36;;;;;;;9.97;7.57;;;;;;;1.69;100.00;100076.09;5093157;28;20580;-67
2021/12/19 01:04:06;;;;;;;8.23;7.43;;;;;;;1.59;100.00;100076.78;5092481;28;20621;-67
2021/12/19 01:06:33;;;;;;;8.73;7.93;;;;;;;1.52;100.00;100070.75;5093090;28;20199;-67
2021/12/19 01:09:00;;;;;;;8.83;7.93;;;;;;;1.48;100.00;100065.66;5091971;28;20199;-67
2021/12/19 01:11:28;;;;;;;7.80;7.03;;;;;;;1.50;100.00;100062.31;5091651;28;20187;-67
2021/12/19 01:13:56;;;;;;;8.90;7.97;;;;;;;1.51;100.00;100068.22;5092952;28;20621;-67
2021/12/19 01:16:23;;;;;;;12.13;7.63;;;;;;;1.46;100.00;100039.50;5090667;28;20199;-68
2021/12/19 01:18:50;;;;;;;7.70;7.00;;;;;;;1.60;100.00;100058.25;5091878;28;20200;-67
2021/12/19 01:21:18;;;;;;;8.10;7.37;;;;;;;1.52;100.00;100029.47;5092839;28;20206;-67
2021/12/19 01:23:45;;;;;;;7.80;7.20;;;;;;;1.68;100.00;100045.75;5092819;28;20199;-68
2021/12/19 01:26:12;;;;;;;8.63;7.77;;;;;;;1.71;100.00;100051.72;5092923;28;20579;-68
2021/12/19 01:28:42;;;;;;;10.03;7.67;;;;;;;1.68;100.00;100051.63;5092594;28;20203;-68
2021/12/19 01:31:09;;;;;;;12.43;8.37;;;;;;;1.72;100.00;100050.88;5093238;28;20609;-68
2021/12/19 01:33:36;;;;;;;12.90;8.33;;;;;;;1.75;100.00;100048.38;5092529;28;20203;-68
2021/12/19 01:36:03;;;;;;;9.77;7.10;;;;;;;1.79;100.00;100056.88;5092929;28;21297;-68
2021/12/19 01:38:31;;;;;;;12.60;8.13;;;;;;;1.83;100.00;100051.03;5092528;28;20210;-68
2021/12/19 01:40:58;;;;;;;14.77;8.03;;;;;;;1.87;100.00;100048.59;5092376;28;20191;-68
2021/12/19 01:43:25;;;;;;;10.20;7.97;;;;;;;1.87;100.00;100053.66;5092816;28;20211;-68
2021/12/19 01:45:54;;;;;;;9.77;7.90;;;;;;;1.87;100.00;100058.72;5092435;28;20203;-68
2021/12/19 01:48:22;;;;;;;10.77;7.87;;;;;;;1.91;100.00;100049.47;5092687;28;20578;-68
2021/12/19 01:50:50;;;;;;;7.63;6.97;;;;;;;1.95;100.00;100041.09;5092030;28;20218;-68
2021/12/19 01:53:18;;;;;;;8.10;7.10;;;;;;;2.00;100.00;100036.97;5092371;28;20195;-68
2021/12/19 01:55:47;;;;;;;7.37;6.20;;;;;;;2.01;100.00;100042.03;5092230;28;20691;-68
2021/12/19 01:58:16;;;;;;;7.93;7.27;;;;;;;2.04;100.00;100037.03;5092535;28;20207;-68
2021/12/19 02:00:45;;;;;;;9.30;6.50;;;;;;;2.07;100.00;100038.75;5092228;28;20199;-68
2021/12/19 02:03:13;;;;;;;11.23;6.80;;;;;;;1.98;100.00;100014.19;5090934;28;20218;-68
2021/12/19 02:05:41;;;;;;;8.13;7.37;;;;;;;2.04;100.00;100010.88;5090928;28;20195;-68
2021/12/19 02:08:09;;;;;;;7.53;6.93;;;;;;;2.13;100.00;100032.94;5091729;28;20196;-68
2021/12/19 02:10:36;;;;;;;11.80;7.37;;;;;;;2.13;100.00;100021.97;5091940;28;20227;-68
2021/12/19 02:13:05;;;;;;;6.40;5.90;;;;;;;2.09;100.00;100020.25;5090231;28;20195;-68
2021/12/19 02:15:33;;;;;;;6.73;6.23;;;;;;;2.09;100.00;100025.31;5087469;28;20207;-68
2021/12/19 02:18:02;;;;;;;6.57;6.07;;;;;;;2.05;100.00;100012.59;5091018;28;20206;-68
2021/12/19 02:20:35;;;;;;;7.67;6.87;;;;;;;1.98;100.00;100011.66;5089889;28;20251;-68
2021/12/19 02:23:02;;;;;;;6.87;6.37;;;;;;;1.91;100.00;100004.81;5089531;28;20686;-68
2021/12/19 02:25:30;;;;;;;7.33;6.73;;;;;;;1.80;100.00;100011.41;5090109;28;20579;-68
2021/12/19 02:27:57;;;;;;;7.70;6.90;;;;;;;1.63;100.00;100012.81;5089837;28;20897;-68
2021/12/19 02:30:24;;;;;;;7.30;6.60;;;;;;;1.55;100.00;100004.28;5089779;28;20200;-68
2021/12/19 02:32:51;;;;;;;6.83;5.90;;;;;;;1.46;100.00;99999.06;5089799;28;20200;-68
2021/12/19 02:35:22;;;;;;;7.37;6.17;;;;;;;1.42;100.00;99998.16;5089863;28;20683;-68
2021/12/19 02:49:06;;;;;;;14.73;9.60;;;;;;;1.38;100.00;99985.50;5090723;28;20689;-68
2021/12/19 02:51:34;;;;;;;13.07;8.97;;;;;;;1.31;100.00;99983.69;5091219;28;20671;-68
2021/12/19 02:54:04;;;;;;;13.40;8.00;;;;;;;1.28;100.00;99979.44;5091156;28;20204;-68
2021/12/19 02:56:32;;;;;;;7.67;7.00;;;;;;;1.05;100.00;99936.16;5091113;28;20203;-68
2021/12/19 02:58:59;;;;;;;7.10;6.60;;;;;;;1.30;100.00;99971.88;5091252;28;20260;-68
2021/12/19 03:01:26;;;;;;;8.50;7.57;;;;;;;1.29;100.00;99960.94;5089933;28;20203;-68
2021/12/19 03:03:53;;;;;;;8.03;7.23;;;;;;;1.33;100.00;99969.41;5090046;28;20645;-68
2021/12/19 03:06:21;;;;;;;7.67;6.97;;;;;;;1.34;100.00;99969.44;5090596;28;20214;-68
2021/12/19 03:08:50;;;;;;;8.20;7.37;;;;;;;1.28;100.00;99966.81;5091300;28;20625;-68
2021/12/19 03:19:31;;;;;;;6.27;5.77;;;;;;;1.32;100.00;99961.00;5090730;28;20198;-68
2021/12/19 03:21:58;;;;;;;8.47;6.17;;;;;;;1.33;100.00;99952.56;5091240;28;20576;-68
2021/12/19 03:24:25;;;;;;;8.60;6.77;;;;;;;1.34;100.00;99958.47;5090771;28;20651;-68
2021/12/19 03:26:53;;;;;;;7.87;7.23;;;;;;;1.32;100.00;99961.00;5090938;28;20195;-68
2021/12/19 03:29:20;;;;;;;7.20;6.60;;;;;;;1.26;100.00;99965.91;5090526;28;20199;-68
2021/12/19 03:31:47;;;;;;;6.70;6.10;;;;;;;1.23;100.00;99955.78;5090850;28;20210;-68
2021/12/19 03:34:14;;;;;;;6.93;6.20;;;;;;;1.20;100.00;99942.25;5090968;28;20576;-68
2021/12/19 03:36:41;;;;;;;6.13;5.73;;;;;;;1.19;100.00;99948.13;5090544;28;20192;-68
2021/12/19 03:39:25;;;;;;;8.90;6.50;;;;;;;1.15;100.00;99941.34;5090779;28;20198;-68
2021/12/19 03:41:56;;;;;;;6.07;5.57;;;;;;;1.12;100.00;99947.19;5089765;28;20257;-68
2021/12/19 03:44:24;;;;;;;8.23;6.07;;;;;;;1.10;100.00;99940.44;5090739;28;20201;-68
2021/12/19 03:46:51;;;;;;;6.50;5.37;;;;;;;1.08;100.00;99940.38;5089425;28;20248;-68
2021/12/19 03:49:19;;;;;;;6.53;5.80;;;;;;;1.07;100.00;99945.44;5091101;28;20199;-68
2021/12/19 03:51:48;;;;;;;7.30;6.70;;;;;;;1.07;100.00;99937.84;5090511;28;20200;-68
2021/12/19 03:54:15;;;;;;;6.57;5.97;;;;;;;1.04;100.00;99939.47;5090602;28;20199;-68
2021/12/19 03:56:42;;;;;;;7.37;6.80;;;;;;;1.03;100.00;99937.78;5090353;28;20671;-68
2021/12/19 03:59:11;;;;;;;7.43;5.63;;;;;;;1.05;100.00;99936.16;5089994;28;20196;-68
2021/12/19 04:01:39;;;;;;;6.50;5.93;;;;;;;1.09;100.00;99931.13;5089154;28;20597;-68
2021/12/19 04:04:06;;;;;;;8.03;6.60;;;;;;;1.08;100.00;99929.44;5090456;28;20770;-68
2021/12/19 04:06:33;;;;;;;7.43;6.93;;;;;;;1.05;100.00;99926.03;5090593;28;20211;-68
2021/12/19 04:09:00;;;;;;;9.13;6.37;;;;;;;1.07;100.00;99927.75;5090259;28;20206;-68
2021/12/19 04:11:27;;;;;;;7.07;6.57;;;;;;;1.05;100.00;99926.03;5090761;28;20544;-68
2021/12/19 04:13:54;;;;;;;7.27;6.33;;;;;;;1.01;100.00;99924.28;5090318;28;20552;-68
2021/12/19 04:16:22;;;;;;;6.00;5.47;;;;;;;1.03;100.00;99921.81;5090534;28;20195;-68
2021/12/19 04:18:49;;;;;;;7.73;6.37;;;;;;;1.00;100.00;99927.63;5089674;28;20204;-68
2021/12/19 04:21:15;;;;;;;6.77;6.17;;;;;;;0.96;100.00;99923.38;5090356;28;20196;-68
2021/12/19 04:23:42;;;;;;;5.90;5.23;;;;;;;0.94;100.00;99927.53;5089091;28;20219;-68
2021/12/19 04:26:09;;;;;;;6.87;6.10;;;;;;;0.98;100.00;99934.34;5089664;28;20225;-68
2021/12/19 04:28:36;;;;;;;7.30;6.47;;;;;;;0.90;100.00;99920.75;5088165;28;20202;-68
2021/12/19 04:31:04;;;;;;;6.57;6.00;;;;;;;0.99;100.00;99931.00;5090898;28;20345;-68
2021/12/19 04:33:34;;;;;;;7.33;6.73;;;;;;;0.98;100.00;99938.53;5092010;28;20222;-68
2021/12/19 04:36:04;;;;;;;6.30;5.80;;;;;;;0.94;100.00;99935.09;5091526;28;20195;-68
2021/12/19 04:39:03;;;;;;;6.93;6.43;;;;;;;0.93;100.00;99933.44;5092200;28;20199;-68
2021/12/19 04:55:26;;;;;;;6.93;6.37;;;;;;;0.87;100.00;99919.84;5091082;28;20578;-68
2021/12/19 04:57:59;;;;;;;6.73;6.10;;;;;;;0.83;100.00;99908.84;5088863;28;20293;-68
2021/12/19 05:00:35;;;;;;;8.27;6.70;;;;;;;0.83;100.00;99908.84;5093042;28;20698;-68
2021/12/19 05:03:07;;;;;;;6.57;5.97;;;;;;;0.81;100.00;99907.97;5092849;28;20301;-68
2021/12/19 05:05:59;;;;;;;6.87;6.27;;;;;;;0.81;100.00;99910.47;5092969;28;20191;-68
2021/12/19 05:14:09;;;;;;;7.13;6.27;;;;;;;0.66;100.00;99905.19;5093006;28;20253;-68
2021/12/19 05:16:38;;;;;;;5.70;5.27;;;;;;;0.60;100.00;99900.03;5092497;28;20233;-68
2021/12/19 05:19:10;;;;;;;6.50;6.00;;;;;;;0.55;100.00;99903.31;5092730;28;20631;-68
2021/12/19 05:21:41;;;;;;;6.60;6.10;;;;;;;0.52;100.00;99896.50;5092773;28;20204;-68
2021/12/19 05:24:21;;;;;;;6.87;6.33;;;;;;;0.39;100.00;99884.50;5092647;28;20637;-68
2021/12/19 05:26:48;;;;;;;6.67;6.20;;;;;;;0.49;100.00;99896.47;5092887;28;20191;-68
2021/12/19 05:29:16;;;;;;;6.67;6.00;;;;;;;0.51;100.00;99894.84;5092780;28;20211;-68
2021/12/19 05:31:43;;;;;;;7.47;6.77;;;;;;;0.51;100.00;99894.84;5092687;28;20206;-68
2021/12/19 05:34:11;;;;;;;7.03;6.47;;;;;;;0.52;100.00;99894.84;5092630;28;20282;-68
2021/12/19 05:47:37;;;;;;;7.80;6.77;;;;;;;0.39;100.00;99879.47;5092356;28;20202;-68
2021/12/19 05:50:05;;;;;;;7.17;6.50;;;;;;;0.33;100.00;99874.31;5092235;28;20192;-68
2021/12/19 05:52:33;;;;;;;7.03;6.43;;;;;;;0.41;100.00;99881.22;5091574;28;20222;-68
2021/12/19 05:55:00;;;;;;;8.40;6.67;;;;;;;0.42;100.00;99885.41;5091201;28;20210;-68
2021/12/19 05:57:27;;;;;;;8.20;6.90;;;;;;;0.41;100.00;99888.78;5091817;28;20203;-68
2021/12/19 05:59:54;;;;;;;7.17;6.67;;;;;;;0.43;100.00;99891.31;5092094;28;20692;-68
2021/12/19 06:02:21;;;;;;;7.47;6.50;;;;;;;0.43;100.00;99891.31;5091964;28;20191;-68
2021/12/19 06:04:47;;;;;;;8.23;7.37;;;;;;;0.47;100.00;99893.94;5092135;28;20579;-68
2021/12/19 06:07:14;;;;;;;8.43;7.63;;;;;;;0.49;100.00;99889.75;5092079;28;20199;-68
2021/12/19 06:09:42;;;;;;;9.10;8.30;;;;;;;0.53;100.00;99889.00;5091758;28;20219;-68
2021/12/19 06:12:10;;;;;;;7.63;6.73;;;;;;;0.52;100.00;99887.28;5090657;28;20196;-68
2021/12/19 06:14:37;;;;;;;7.67;6.97;;;;;;;0.55;100.00;99889.00;5091747;28;20192;-68
2021/12/19 06:17:05;;;;;;;6.93;6.43;;;;;;;0.58;100.00;99886.56;5091611;28;20210;-68
2021/12/19 06:19:36;;;;;;;7.00;6.43;;;;;;;0.62;100.00;99888.28;5091701;28;20286;-68
2021/12/19 06:22:04;;;;;;;6.63;6.03;;;;;;;0.63;100.00;99890.00;5091714;28;20292;-67
2021/12/19 06:24:31;;;;;;;7.13;6.53;;;;;;;0.63;100.00;99884.94;5091536;28;20704;-68
2021/12/19 06:26:59;;;;;;;7.00;6.30;;;;;;;0.66;100.00;99885.00;5091408;28;20195;-68
2021/12/19 06:29:27;;;;;;;7.87;6.50;;;;;;;0.71;100.00;99878.34;5091700;28;20249;-68
2021/12/19 06:31:54;;;;;;;7.13;6.43;;;;;;;0.73;100.00;99871.66;5089903;28;20290;-68
2021/12/19 06:34:21;;;;;;;7.27;6.33;;;;;;;0.76;100.00;99871.72;5090573;28;20199;-68
2021/12/19 06:36:48;;;;;;;5.20;4.80;;;;;;;0.76;100.00;99866.66;5091123;28;20685;-68
2021/12/19 06:39:14;;;;;;;6.63;6.13;;;;;;;0.84;100.00;99860.06;5091200;28;20206;-68
2021/12/19 06:41:41;;;;;;;5.80;5.27;;;;;;;0.91;100.00;99851.75;5091483;28;20691;-68
2021/12/19 06:44:10;;;;;;;6.77;5.87;;;;;;;1.01;100.00;99858.66;5091064;28;20215;-68
2021/12/19 06:46:36;;;;;;;6.13;5.57;;;;;;;1.09;100.00;99851.22;5091193;28;20199;-68
2021/12/19 06:49:04;;;;;;;5.77;5.27;;;;;;;1.16;100.00;99847.09;5084829;28;20626;-68
2021/12/19 06:51:33;;;;;;;5.63;5.13;;;;;;;1.16;100.00;99844.56;5086684;28;20230;-68
2021/12/19 06:54:00;;;;;;;5.53;5.13;;;;;;;1.22;100.00;99848.03;5086420;28;20195;-68
2021/12/19 06:56:27;;;;;;;5.73;5.23;;;;;;;1.21;100.00;99835.38;5087625;28;20203;-68
2021/12/19 06:58:54;;;;;;;9.03;5.97;;;;;;;1.27;100.00;99841.34;5087020;28;20586;-68
2021/12/19 07:01:22;;;;;;;7.37;6.67;;;;;;;1.31;100.00;99838.06;5087932;28;20203;-68
2021/12/19 07:03:49;;;;;;;7.43;6.87;;;;;;;1.34;100.00;99834.72;5076468;28;20220;-68
2021/12/19 07:06:16;;;;;;;7.53;6.73;;;;;;;1.35;100.00;99836.44;5083225;28;20210;-68
2021/12/19 07:08:46;;;;;;;7.43;6.90;;;;;;;1.32;100.00;99827.13;5086528;28;20203;-68
2021/12/19 07:11:13;;;;;;;9.50;7.27;;;;;;;1.28;100.00;99810.25;5079330;28;20203;-61
2021/12/19 07:13:41;;;;;;;7.43;6.90;;;;;;;1.46;100.00;99837.41;5087946;28;20200;-61
2021/12/19 07:16:08;;;;;;;7.97;7.33;;;;;;;1.49;100.00;99833.25;5088159;28;20222;-61
2021/12/19 07:18:37;;;;;;;8.10;7.40;;;;;;;1.54;100.00;99830.78;5087552;28;20196;-61
2021/12/19 07:21:05;;;;;;;6.70;6.17;;;;;;;1.61;100.00;99827.50;5087039;28;20235;-61
2021/12/19 07:23:32;;;;;;;7.33;6.80;;;;;;;1.65;100.00;99826.69;5086809;28;20671;-62
2021/12/19 07:25:59;;;;;;;6.30;5.90;;;;;;;1.71;100.00;99834.38;5087206;28;20209;-62
2021/12/19 07:28:26;;;;;;;8.90;8.00;;;;;;;1.77;100.00;99836.97;5087581;28;20207;-62
2021/12/19 07:30:53;;;;;;;6.10;5.70;;;;;;;1.82;100.00;99834.47;5087526;28;20207;-62
2021/12/19 07:33:20;;;;;;;6.80;6.10;;;;;;;1.84;100.00;99828.59;5087197;28;20207;-62
2021/12/19 07:35:49;;;;;;;5.60;5.20;;;;;;;1.94;100.00;99838.00;5087593;28;20200;-68
2021/12/19 07:38:23;;;;;;;5.53;5.10;;;;;;;1.96;100.00;99832.97;5086636;28;20207;-62
2021/12/19 07:40:50;;;;;;;7.23;5.57;;;;;;;1.99;100.00;99826.28;5085472;28;20235;-63
2021/12/19 07:43:18;;;;;;;5.33;5.00;;;;;;;2.09;100.00;99829.75;5087484;28;20734;-62
2021/12/19 07:45:45;;;;;;;5.90;5.50;;;;;;;2.15;100.00;99831.47;5087599;28;20203;-62
2021/12/19 07:48:12;;;;;;;5.87;5.47;;;;;;;2.21;100.00;99821.44;5083977;28;20196;-62
2021/12/19 07:50:39;;;;;;;5.10;4.73;;;;;;;2.26;100.00;99820.66;5086472;28;20642;-62
2021/12/19 07:53:08;;;;;;;8.70;5.73;;;;;;;2.33;100.00;99824.06;5085244;28;20659;-62
2021/12/19 07:55:35;;;;;;;4.67;4.37;;;;;;;2.41;100.00;99825.84;5083861;28;20571;-62
2021/12/19 07:58:02;;;;;;;5.37;4.97;;;;;;;2.50;100.00;99822.56;5087229;28;20202;-63
2021/12/19 08:00:29;;;;;;;6.87;6.23;;;;;;;2.60;100.00;99821.78;5087283;28;20209;-62
2021/12/19 08:02:56;;;;;;;7.60;5.13;;;;;;;2.64;100.00;99814.25;5086602;28;20578;-62
2021/12/19 08:05:23;;;;;;;4.70;4.30;;;;;;;2.72;100.00;99811.75;5090421;28;20218;-63
2021/12/19 08:07:56;;;;;;;5.47;4.97;;;;;;;2.78;100.00;99808.47;5091248;28;20448;-63
2021/12/19 08:13:09;;;;;;;5.60;5.07;;;;;;;2.89;100.00;99801.75;5090792;28;20678;-63
2021/12/19 08:15:37;;;;;;;4.63;4.33;;;;;;;2.97;100.00;99798.44;5088492;28;20203;-62
2021/12/19 08:18:06;;;;;;;5.30;4.80;;;;;;;3.00;100.00;99792.56;5089736;28;20210;-62
2021/12/19 08:20:33;;;;;;;5.67;4.33;;;;;;;3.03;100.00;99788.38;5089828;28;20203;-62
2021/12/19 08:23:00;;;;;;;5.00;4.60;;;;;;;3.11;100.00;99784.19;5088782;28;20693;-63
2021/12/19 08:25:28;;;;;;;6.10;4.17;;;;;;;3.18;100.00;99788.44;5089660;28;20218;-62
2021/12/19 08:27:56;;;;;;;4.93;4.63;;;;;;;3.22;99.66;99783.41;5088297;28;20586;-63
2021/12/19 08:30:24;;;;;;;6.47;4.10;;;;;;;3.28;99.06;99779.22;5089701;28;20698;-64
2021/12/19 08:32:53;;;;;;;6.43;5.93;;;;;;;3.33;98.69;99776.72;5087250;28;20208;-62
2021/12/19 08:35:20;;;;;;;5.20;4.80;;;;;;;3.27;98.69;99752.19;5087687;28;20267;-61
2021/12/19 08:37:47;;;;;;;5.23;4.83;;;;;;;3.43;98.70;99769.13;5089389;28;21627;-62
2021/12/19 08:40:14;;;;;;;4.83;4.53;;;;;;;3.48;97.66;99762.44;5091558;28;20206;-62
2021/12/19 08:42:42;;;;;;;4.70;4.40;;;;;;;3.51;99.05;99751.44;5093402;28;20217;-62
2021/12/19 08:45:10;;;;;;;5.70;5.40;;;;;;;3.56;98.95;99755.69;5093432;28;20215;-62
2021/12/19 08:47:37;;;;;;;4.30;4.00;;;;;;;3.64;97.61;99753.19;5092311;28;20210;-62
2021/12/19 08:50:07;;;;;;;4.40;4.10;;;;;;;3.70;98.66;99748.13;5092578;28;20199;-62
2021/12/19 08:52:33;;;;;;;4.57;4.17;;;;;;;3.78;97.79;99746.44;5093285;28;20200;-62
2021/12/19 08:55:01;;;;;;;5.83;4.87;;;;;;;3.88;99.01;99747.34;5092796;28;22108;-62
2021/12/19 08:57:28;;;;;;;5.53;5.03;;;;;;;3.89;97.36;99737.19;5093000;28;20211;-62
2021/12/19 08:59:57;;;;;;;4.70;4.40;;;;;;;3.98;97.40;99749.88;5092187;28;20211;-62
2021/12/19 09:02:24;;;;;;;5.10;4.80;;;;;;;4.03;97.16;99727.91;5093249;28;20198;-62
2021/12/19 09:04:51;;;;;;;4.67;4.37;;;;;;;4.05;95.68;99736.38;5093008;28;20222;-62
2021/12/19 09:07:18;;;;;;;5.67;5.27;;;;;;;4.07;96.07;99728.78;5092788;28;20195;-62
2021/12/19 09:09:48;;;;;;;5.97;4.87;;;;;;;4.05;97.20;99700.84;5093169;28;20223;-66
2021/12/19 09:12:15;;;;;;;4.80;4.40;;;;;;;4.24;97.25;99717.78;5092793;28;20424;-71
2021/12/19 09:14:42;;;;;;;5.88;5.47;;;;;;;4.38;97.59;99714.38;5092319;28;20456;-66
2021/12/19 09:17:10;;;;;;;4.50;4.10;;;;;;;4.47;96.47;99704.22;5092225;28;20206;-66
2021/12/19 09:19:37;;;;;;;5.47;5.17;;;;;;;4.57;96.52;99703.38;5093102;28;20556;-66
2021/12/19 09:22:05;;;;;;;4.57;4.33;;;;;;;4.60;95.98;99691.53;5093196;28;20192;-66
2021/12/19 09:24:32;;;;;;;5.43;5.03;;;;;;;4.66;96.13;99691.50;5093076;28;20207;-66
2021/12/19 09:27:00;;;;;;;5.10;4.80;;;;;;;4.71;96.07;99683.91;5093188;28;20195;-67
2021/12/19 09:29:28;;;;;;;4.97;4.57;;;;;;;4.71;95.95;99673.72;5092644;28;20725;-67
2021/12/19 09:31:55;;;;;;;5.67;5.23;;;;;;;4.81;95.24;99669.47;5093061;28;20196;-66
2021/12/19 09:34:24;;;;;;;5.13;4.73;;;;;;;4.84;93.47;99669.47;5092544;28;20195;-67
2021/12/19 09:36:51;;;;;;;6.50;6.03;;;;;;;4.84;95.37;99665.25;5092792;28;20206;-67
2021/12/19 09:39:19;;;;;;;6.27;5.67;;;;;;;4.90;93.82;99655.06;5092518;28;20552;-68
2021/12/19 09:41:47;;;;;;;5.97;5.57;;;;;;;4.93;92.72;99657.59;5092606;28;20260;-66
2021/12/19 09:44:16;;;;;;;6.17;5.57;;;;;;;4.98;92.98;99652.47;5091921;28;20223;-67
2021/12/19 09:46:44;;;;;;;4.97;4.57;;;;;;;5.03;93.06;99645.69;5090686;28;20337;-67
2021/12/19 09:49:16;;;;;;;5.80;5.40;;;;;;;5.10;94.16;99635.50;5092604;28;20595;-67
2021/12/19 09:51:45;;;;;;;6.23;5.73;;;;;;;5.14;93.73;99627.00;5091348;28;20192;-67
2021/12/19 09:54:15;;;;;;;6.00;5.63;;;;;;;5.15;93.47;99621.06;5092394;28;20199;-67
2021/12/19 09:56:43;;;;;;;8.83;5.20;;;;;;;5.30;95.25;99612.50;5092377;28;20669;-67
2021/12/19 09:59:12;;;;;;;8.67;5.20;;;;;;;5.39;92.75;99616.72;5092884;28;20206;-67
2021/12/19 10:01:39;;;;;;;5.53;5.20;;;;;;;5.43;93.40;99615.84;5092130;28;20218;-67
2021/12/19 10:04:26;;;;;;;5.43;4.70;;;;;;;5.48;93.12;99609.88;5092198;28;20216;-67
2021/12/19 10:07:07;;;;;;;5.37;4.97;;;;;;;5.56;93.51;99597.94;5089083;28;20202;-67
2021/12/19 10:09:36;;;;;;;5.23;4.87;;;;;;;5.57;91.12;99588.63;5089240;28;20764;-68
2021/12/19 10:12:24;;;;;;;5.57;5.17;;;;;;;5.54;92.74;99575.94;5089099;28;20199;-67
2021/12/19 10:14:54;;;;;;;5.50;5.00;;;;;;;5.66;91.91;99583.47;5091255;28;20268;-67
2021/12/19 10:17:21;;;;;;;5.37;5.07;;;;;;;5.67;92.39;99572.44;5091877;28;20199;-68
2021/12/19 10:19:50;;;;;;;6.10;5.53;;;;;;;5.79;91.51;99585.03;5091827;28;20235;-67
2021/12/19 10:22:32;;;;;;;5.20;4.90;;;;;;;5.80;90.22;99577.41;5091748;28;20196;-67
2021/12/19 10:25:11;;;;;;;7.67;5.70;;;;;;;5.69;91.43;99542.75;5092066;28;20711;-67
2021/12/19 10:27:40;;;;;;;5.80;5.40;;;;;;;5.84;90.09;99570.59;5090632;28;20195;-67
2021/12/19 10:30:12;;;;;;;5.47;4.97;;;;;;;5.78;90.02;99555.41;5091498;28;20205;-67
2021/12/19 10:32:51;;;;;;;5.57;5.13;;;;;;;5.96;91.94;99567.97;5091586;28;20199;-68
2021/12/19 10:35:20;;;;;;;7.87;7.17;;;;;;;5.97;89.85;99564.59;5091573;28;20195;-68
2021/12/19 10:37:49;;;;;;;5.47;5.13;;;;;;;5.99;90.21;99567.94;5091386;28;20217;-68
2021/12/19 10:40:16;;;;;;;5.00;4.70;;;;;;;6.06;90.23;99567.03;5090131;28;20196;-67
2021/12/19 10:42:53;;;;;;;5.87;5.43;;;;;;;6.18;90.39;99559.28;5091374;28;20663;-68
2021/12/19 10:45:35;;;;;;;4.57;4.30;;;;;;;6.22;85.38;99555.84;5089993;28;20242;-68
2021/12/19 10:48:15;;;;;;;5.10;4.80;;;;;;;6.23;86.04;99555.00;5091530;28;20206;-68
2021/12/19 10:50:43;;;;;;;5.77;5.27;;;;;;;6.23;87.02;99532.09;5089098;28;20210;-68
2021/12/19 10:53:12;;;;;;;5.67;5.17;;;;;;;6.33;85.36;99533.66;5088746;28;20202;-68
2021/12/19 10:55:41;;;;;;;5.90;5.50;;;;;;;6.34;86.89;99520.06;5091219;28;20191;-67
2021/12/19 10:58:19;;;;;;;14.83;9.73;;;;;;;6.35;83.49;99520.94;5091276;28;20565;-68
2021/12/19 11:00:56;;;;;;;9.53;8.20;;;;;;;6.35;84.78;99515.84;5090973;28;20209;-68
2021/12/19 11:03:38;;;;;;;10.50;8.87;;;;;;;6.46;87.21;99503.84;5091054;28;20282;-68
2021/12/19 11:06:21;;;;;;;7.23;6.53;;;;;;;6.55;85.31;99497.78;5091093;28;20211;-68
2021/12/19 11:08:50;;;;;;;8.97;7.83;;;;;;;6.61;85.75;99497.69;5090812;28;20202;-68
2021/12/19 11:11:50;;;;;;;9.17;8.37;;;;;;;6.63;86.00;99485.78;5091042;28;20199;-68
2021/12/19 11:14:23;;;;;;;9.30;8.17;;;;;;;6.64;85.25;99477.28;5090943;28;20245;-68
2021/12/19 11:16:53;;;;;;;7.03;6.53;;;;;;;6.72;84.88;99472.94;5090641;28;20199;-68
2021/12/19 11:19:20;;;;;;;6.63;6.23;;;;;;;6.79;83.85;99467.72;5091055;28;20202;-68
2021/12/19 11:21:47;;;;;;;6.97;6.57;;;;;;;6.73;84.86;99462.72;5090801;28;20681;-68
2021/12/19 11:24:17;;;;;;;6.63;6.13;;;;;;;6.84;84.46;99465.13;5091025;28;20199;-68
2021/12/19 11:26:47;;;;;;;6.70;6.27;;;;;;;6.85;84.52;99457.44;5090954;28;20195;-68
2021/12/19 11:29:15;;;;;;;6.60;6.20;;;;;;;6.86;83.83;99443.00;5090932;28;20689;-68
2021/12/19 11:31:45;;;;;;;6.23;5.47;;;;;;;6.84;83.30;99444.72;5090784;28;20202;-69
2021/12/19 11:34:19;;;;;;;6.33;5.93;;;;;;;6.76;85.30;99415.97;5090671;28;20643;-68
2021/12/19 11:36:49;;;;;;;6.93;6.53;;;;;;;6.99;86.12;99430.91;5091035;28;20191;-68
2021/12/19 11:39:18;;;;;;;7.53;6.90;;;;;;;6.95;83.31;99429.28;5091208;28;20681;-68
2021/12/19 11:42:13;;;;;;;8.23;7.63;;;;;;;6.94;83.14;99431.00;5092683;28;20663;-68
2021/12/19 11:45:03;;;;;;;9.10;8.43;;;;;;;6.99;85.04;99434.31;5094447;28;20251;-68
2021/12/19 11:47:38;;;;;;;8.63;6.33;;;;;;;6.98;82.56;99429.25;5094934;28;20195;-68
2021/12/19 11:50:26;;;;;;;7.95;7.45;;;;;;;6.97;80.73;99425.84;5093917;28;20432;-70
2021/12/19 11:52:55;;;;;;;6.83;6.10;;;;;;;7.03;84.19;99405.38;5093996;28;20199;-70
2021/12/19 11:55:30;;;;;;;6.40;5.77;;;;;;;7.09;84.37;99410.34;5091520;28;20663;-71
2021/12/19 11:58:19;;;;;;;7.00;6.60;;;;;;;7.14;86.01;99395.00;5091553;28;20205;-71
2021/12/19 12:00:52;;;;;;;8.03;7.27;;;;;;;7.16;85.46;99391.56;5092802;28;20195;-71
2021/12/19 12:03:26;;;;;;;6.90;6.40;;;;;;;7.18;85.42;99399.16;5093555;28;20210;-70
2021/12/19 12:06:14;;;;;;;6.23;5.83;;;;;;;7.14;83.41;99383.06;5094117;28;20211;-71
2021/12/19 12:09:13;;;;;;;7.00;6.47;;;;;;;7.14;83.00;99389.91;5093499;28;20295;-71
2021/12/19 12:11:42;;;;;;;7.47;6.80;;;;;;;7.12;83.37;99378.88;5093050;28;20290;-71
2021/12/19 12:14:29;;;;;;;5.60;5.30;;;;;;;7.12;82.54;99366.97;5092427;28;20199;-71
2021/12/19 12:16:58;;;;;;;5.83;5.33;;;;;;;7.08;82.16;99372.13;5093483;28;20567;-71
2021/12/19 12:19:40;;;;;;;6.73;6.20;;;;;;;7.05;84.94;99367.94;5092710;28;20249;-71
2021/12/19 12:22:31;;;;;;;6.50;5.90;;;;;;;7.04;84.60;99371.38;5092074;28;20675;-71
2021/12/19 12:25:16;;;;;;;6.23;5.73;;;;;;;7.05;83.54;99378.13;5092313;28;20211;-71
2021/12/19 12:27:47;;;;;;;6.60;6.20;;;;;;;7.00;82.72;99369.72;5093145;28;20196;-71
2021/12/19 12:30:17;;;;;;;5.80;5.20;;;;;;;6.99;83.16;99362.94;5090589;28;20316;-70
2021/12/19 12:32:45;;;;;;;6.57;6.17;;;;;;;6.96;83.14;99355.34;5085553;28;20570;-71
2021/12/19 12:35:13;;;;;;;5.97;5.67;;;;;;;6.94;85.06;99323.13;5088898;28;20199;-74
2021/12/19 12:37:42;;;;;;;6.93;6.43;;;;;;;7.03;86.10;99336.56;5088091;28;20206;-74
2021/12/19 12:40:23;;;;;;;5.93;5.53;;;;;;;7.09;86.57;99341.53;5088792;28;20204;-74
2021/12/19 12:43:09;;;;;;;6.67;6.07;;;;;;;7.13;84.64;99340.63;5083242;28;20203;-73